ROMMA est une association bénévole à but non lucratif. Votre soutien est indispensable : ADHERER à ROMMA ou FAIRE un DON

Briord - (01, Ain)

Bugey (281 m)   Longitude: 05° 29' 13" E   Latitude: 45° 46' 37" N Station partenaire n°15
 

Détail journalier du     <<     >>

Température Precipitation Humidité Pression Vent Dir Rafale Dir. rafale Ensol.
Heure (°C) (mm) (%) (hPa) (km/h) (km/h) (min)
01:00 2.1091103512NNO24N0
02:00 2.009110349NO21NNO0
03:00 2.109010348NNO24NNO0
04:00 2.109010349NNO24NNO0
05:00 2.109110347NO18NNO0
06:00 2.009110348NNO19NO0
07:00 1.609110344NO19NNO0
08:00 1.709110343O19ONO0
09:00 2.0091103510NO24NO0
10:00 2.409010359NO23N0
11:00 2.7089103510NO24NNO0
12:00 3.1087103510NNO24NO0
13:00 3.4086103413NNO24NNO0
14:00 3.808210349NO21ONO0
15:00 3.907910348NO21NO0
16:00 3.908010348NNO21NNO0
17:00 3.608210353NNO16NO0
18:00 3.507910353NNO15NNO0
19:00 3.407910357NNO21NNO0
20:00 3.407910353NNO16N0
21:00 3.208010351NO10N0
22:00 2.9081103408NNO0
23:00 3.107910341NNO13NNO0
minuit 3.207810345NNO19N0

Graphique du 07-01-2019

 

Serveur OMMA